Time;durP1;ratioP1;P1;durP2;ratioP2;P2;SDS_P1;SDS_P2;PMS_P1;PMS_P2;Temp;Humidity;BMP_temperature;BMP_pressure;BME280_temperature;BME280_humidity;BME280_pressure;Samples;Min_cycle;Max_cycle;Signal;HPM_P1;HPM_P2
2021/09/10 00:02:08;;;;;;;1999.90;999.90;;;;;;;;;;5014867;28;20018;-86
2021/09/10 00:04:34;;;;;;;1999.90;999.90;;;;;;;;;;5014817;28;20026;-88
2021/09/10 00:07:00;;;;;;;1999.90;999.90;;;;;;;;;;5014656;28;20042;-88
2021/09/10 00:09:26;;;;;;;1999.90;999.90;;;;;;;;;;5015514;28;20026;-87
2021/09/10 00:11:52;;;;;;;1999.90;999.90;;;;;;;;;;5015034;28;20443;-87
2021/09/10 00:14:18;;;;;;;1999.90;999.90;;;;;;;;;;5015131;28;20028;-86
2021/09/10 00:16:44;;;;;;;1999.90;999.90;;;;;;;;;;5014875;28;20018;-87
2021/09/10 00:19:10;;;;;;;1999.90;999.90;;;;;;;;;;5014773;28;20069;-88
2021/09/10 00:21:36;;;;;;;1999.90;999.90;;;;;;;;;;5014457;28;20030;-87
2021/09/10 00:24:02;;;;;;;1999.90;999.90;;;;;;;;;;5014668;28;20061;-87
2021/09/10 00:26:28;;;;;;;1999.90;999.90;;;;;;;;;;5015216;28;20038;-88
2021/09/10 00:28:54;;;;;;;1999.90;999.90;;;;;;;;;;5014390;28;20113;-88
2021/09/10 00:31:20;;;;;;;1999.90;999.90;;;;;;;;;;5015518;28;20546;-87
2021/09/10 00:33:47;;;;;;;1999.90;999.90;;;;;;;;;;5014980;28;20033;-86
2021/09/10 00:36:13;;;;;;;1999.90;999.90;;;;;;;;;;5014619;28;20025;-88
2021/09/10 00:38:39;;;;;;;1999.90;999.90;;;;;;;;;;5014708;28;20041;-87
2021/09/10 00:41:05;;;;;;;1999.90;999.90;;;;;;;;;;5014595;28;20017;-87
2021/09/10 00:43:31;;;;;;;1999.90;999.90;;;;;;;;;;5014398;28;20103;-86
2021/09/10 00:45:58;;;;;;;1999.90;999.90;;;;;;;;;;5014487;28;20037;-84
2021/09/10 00:48:24;;;;;;;1999.90;999.90;;;;;;;;;;5014485;28;20026;-87
2021/09/10 00:50:50;;;;;;;1999.90;999.90;;;;;;;;;;5014871;28;20041;-86
2021/09/10 00:53:17;;;;;;;1999.90;999.90;;;;;;;;;;5016955;28;20026;-87
2021/09/10 00:55:45;;;;;;;1999.90;999.90;;;;;;;;;;5019698;28;20022;-87
2021/09/10 00:58:11;;;;;;;1999.90;999.90;;;;;;;;;;5024552;28;20026;-88
2021/09/10 01:00:37;;;;;;;1999.90;999.90;;;;;;;;;;5025953;28;20117;-88
2021/09/10 01:03:03;;;;;;;1999.90;999.90;;;;;;;;;;5026849;28;20045;-87
2021/09/10 01:05:29;;;;;;;1999.90;999.90;;;;;;;;;;5018129;28;20069;-88
2021/09/10 01:07:57;;;;;;;1999.90;999.90;;;;;;;;;;5017827;28;20023;-87
2021/09/10 01:10:23;;;;;;;1999.90;999.90;;;;;;;;;;5017709;28;20026;-87
2021/09/10 01:12:50;;;;;;;1999.90;999.90;;;;;;;;;;5017627;28;20018;-87
2021/09/10 01:15:16;;;;;;;1999.90;999.90;;;;;;;;;;5018107;28;20029;-87
2021/09/10 01:17:42;;;;;;;1999.90;999.90;;;;;;;;;;5017615;28;20026;-87
2021/09/10 01:20:09;;;;;;;1999.90;999.90;;;;;;;;;;5017877;28;20054;-86
2021/09/10 01:22:36;;;;;;;1999.90;999.90;;;;;;;;;;5017751;28;20021;-87
2021/09/10 01:25:06;;;;;;;1999.90;999.90;;;;;;;;;;5017460;28;20046;-87
2021/09/10 01:27:32;;;;;;;1999.90;999.90;;;;;;;;;;5017225;28;20366;-88
2021/09/10 01:29:59;;;;;;;1999.90;999.90;;;;;;;;;;5017517;28;20029;-88
2021/09/10 01:32:26;;;;;;;1999.90;999.90;;;;;;;;;;5018372;28;20105;-86
2021/09/10 01:34:52;;;;;;;1999.90;999.90;;;;;;;;;;5017044;28;20028;-86
2021/09/10 01:37:18;;;;;;;1999.90;999.90;;;;;;;;;;5017124;28;20496;-87
2021/09/10 01:39:44;;;;;;;1999.90;999.90;;;;;;;;;;5017141;28;20373;-88
2021/09/10 01:42:10;;;;;;;1999.90;999.90;;;;;;;;;;5017004;28;20065;-87
2021/09/10 01:44:36;;;;;;;1999.90;999.90;;;;;;;;;;5016867;28;20033;-86
2021/09/10 01:47:02;;;;;;;1999.90;999.90;;;;;;;;;;5016830;28;20030;-87
2021/09/10 01:49:28;;;;;;;1999.90;999.90;;;;;;;;;;5016838;28;20033;-87
2021/09/10 01:51:54;;;;;;;1999.90;999.90;;;;;;;;;;5016887;28;20100;-87
2021/09/10 01:54:21;;;;;;;1999.90;999.90;;;;;;;;;;5016631;28;20026;-87
2021/09/10 01:56:47;;;;;;;1999.90;999.90;;;;;;;;;;5016568;28;20025;-87
2021/09/10 01:59:13;;;;;;;1999.90;999.90;;;;;;;;;;5017994;28;20496;-86
2021/09/10 02:01:39;;;;;;;1999.90;999.90;;;;;;;;;;5016691;28;20029;-87
2021/09/10 02:04:05;;;;;;;1999.90;999.90;;;;;;;;;;5016582;28;20542;-86
2021/09/10 02:06:31;;;;;;;1999.90;999.90;;;;;;;;;;5016042;28;20034;-85
2021/09/10 02:08:57;;;;;;;1999.90;999.90;;;;;;;;;;5016256;28;20030;-87
2021/09/10 02:11:23;;;;;;;1999.90;999.90;;;;;;;;;;5016211;28;20022;-87
2021/09/10 02:13:49;;;;;;;1999.90;999.90;;;;;;;;;;5016207;28;20041;-86
2021/09/10 02:16:15;;;;;;;1999.90;999.90;;;;;;;;;;5016787;28;20061;-88
2021/09/10 02:18:41;;;;;;;1999.90;999.90;;;;;;;;;;5016382;28;20022;-87
2021/09/10 02:21:08;;;;;;;1999.90;999.90;;;;;;;;;;5016477;28;20026;-86
2021/09/10 02:23:34;;;;;;;1999.90;999.90;;;;;;;;;;5015931;28;20050;-86
2021/09/10 02:26:00;;;;;;;1999.90;999.90;;;;;;;;;;5016112;28;20030;-89
2021/09/10 02:28:26;;;;;;;1999.90;999.90;;;;;;;;;;5016314;28;20030;-87
2021/09/10 02:30:53;;;;;;;1999.90;999.90;;;;;;;;;;5016375;28;20393;-87
2021/09/10 02:33:19;;;;;;;1999.90;999.90;;;;;;;;;;5016136;28;20525;-86
2021/09/10 02:35:45;;;;;;;1999.90;999.90;;;;;;;;;;5016447;28;20026;-86
2021/09/10 02:38:11;;;;;;;1999.90;999.90;;;;;;;;;;5015939;28;20033;-86
2021/09/10 02:40:37;;;;;;;1999.90;999.90;;;;;;;;;;5015671;28;20022;-85
2021/09/10 02:43:03;;;;;;;1999.90;999.90;;;;;;;;;;5015638;28;20057;-86
2021/09/10 02:45:29;;;;;;;1999.90;999.90;;;;;;;;;;5015627;28;20061;-88
2021/09/10 02:47:55;;;;;;;1999.90;999.90;;;;;;;;;;5015729;28;20026;-87
2021/09/10 02:50:22;;;;;;;1999.90;999.90;;;;;;;;;;5015762;28;20104;-86
2021/09/10 02:52:50;;;;;;;1999.90;999.90;;;;;;;;;;5016957;28;20462;-86
2021/09/10 02:55:16;;;;;;;1999.90;999.90;;;;;;;;;;5015673;28;20037;-85
2021/09/10 02:57:42;;;;;;;1999.90;999.90;;;;;;;;;;5015508;28;20073;-86
2021/09/10 03:00:08;;;;;;;1999.90;999.90;;;;;;;;;;5015785;28;20030;-87
2021/09/10 03:02:34;;;;;;;1999.90;999.90;;;;;;;;;;5015349;28;20025;-85
2021/09/10 03:05:00;;;;;;;1999.90;999.90;;;;;;;;;;5014206;28;20018;-86
2021/09/10 03:07:27;;;;;;;1999.90;999.90;;;;;;;;;;5013866;28;20045;-86
2021/09/10 03:09:53;;;;;;;1999.90;999.90;;;;;;;;;;5014101;28;20049;-88
2021/09/10 03:12:19;;;;;;;1999.90;999.90;;;;;;;;;;5015841;28;20473;-87
2021/09/10 03:14:45;;;;;;;1999.90;999.90;;;;;;;;;;5014681;28;20033;-84
2021/09/10 03:17:11;;;;;;;1999.90;999.90;;;;;;;;;;5014964;28;20026;-87
2021/09/10 03:19:37;;;;;;;1999.90;999.90;;;;;;;;;;5014677;28;20028;-89
2021/09/10 03:22:03;;;;;;;1999.90;999.90;;;;;;;;;;5014649;28;20029;-86
2021/09/10 03:24:29;;;;;;;1999.90;999.90;;;;;;;;;;5014043;28;20148;-88
2021/09/10 03:26:55;;;;;;;1999.90;999.90;;;;;;;;;;5014740;28;20069;-85
2021/09/10 03:29:21;;;;;;;1999.90;999.90;;;;;;;;;;5014389;28;20156;-86
2021/09/10 03:31:47;;;;;;;1999.90;999.90;;;;;;;;;;5014847;28;20505;-88
2021/09/10 03:34:13;;;;;;;1999.90;999.90;;;;;;;;;;5014444;28;20022;-86
2021/09/10 03:36:40;;;;;;;1999.90;999.90;;;;;;;;;;5014367;28;20022;-86
2021/09/10 03:39:06;;;;;;;1999.90;999.90;;;;;;;;;;5014469;28;20536;-86
2021/09/10 03:41:32;;;;;;;1999.90;999.90;;;;;;;;;;5014513;28;20029;-87
2021/09/10 03:43:58;;;;;;;1999.90;999.90;;;;;;;;;;5014348;28;20026;-86
2021/09/10 03:46:24;;;;;;;1999.90;999.90;;;;;;;;;;5014400;28;20096;-87
2021/09/10 03:48:50;;;;;;;1999.90;999.90;;;;;;;;;;5014652;28;20062;-86
2021/09/10 03:51:17;;;;;;;1999.90;999.90;;;;;;;;;;5014335;28;20080;-86
2021/09/10 03:53:43;;;;;;;1999.90;999.90;;;;;;;;;;5014348;28;20026;-86
2021/09/10 03:56:09;;;;;;;1999.90;999.90;;;;;;;;;;5014241;28;20022;-85
2021/09/10 03:58:35;;;;;;;1999.90;999.90;;;;;;;;;;5014238;28;20072;-87
2021/09/10 04:01:01;;;;;;;1999.90;999.90;;;;;;;;;;5014645;28;20034;-87
2021/09/10 04:03:28;;;;;;;1999.90;999.90;;;;;;;;;;5014210;28;20116;-87
2021/09/10 04:05:54;;;;;;;1999.90;999.90;;;;;;;;;;5014741;28;20034;-87
2021/09/10 04:08:20;;;;;;;1999.90;999.90;;;;;;;;;;5014609;28;20026;-84
2021/09/10 04:10:46;;;;;;;1999.90;999.90;;;;;;;;;;5014340;28;20461;-87
2021/09/10 04:13:12;;;;;;;1999.90;999.90;;;;;;;;;;5013993;28;20491;-86
2021/09/10 04:15:38;;;;;;;1999.90;999.90;;;;;;;;;;5014613;28;20018;-86
2021/09/10 04:18:04;;;;;;;1999.90;999.90;;;;;;;;;;5014463;28;20469;-85
2021/09/10 04:20:33;;;;;;;1999.90;999.90;;;;;;;;;;5014537;28;20030;-86
2021/09/10 04:22:59;;;;;;;1999.90;999.90;;;;;;;;;;5014040;28;20515;-87
2021/09/10 04:25:25;;;;;;;1999.90;999.90;;;;;;;;;;5013915;28;20053;-87
2021/09/10 04:27:51;;;;;;;1999.90;999.90;;;;;;;;;;5014260;28;20464;-85
2021/09/10 04:30:18;;;;;;;1999.90;999.90;;;;;;;;;;5014269;28;20026;-88
2021/09/10 04:32:44;;;;;;;1999.90;999.90;;;;;;;;;;5013796;28;20358;-86
2021/09/10 04:35:11;;;;;;;1999.90;999.90;;;;;;;;;;5015284;28;20033;-85
2021/09/10 04:37:38;;;;;;;1999.90;999.90;;;;;;;;;;5017862;28;20044;-87
2021/09/10 04:40:04;;;;;;;1999.90;999.90;;;;;;;;;;5017632;28;20022;-85
2021/09/10 04:42:30;;;;;;;1999.90;999.90;;;;;;;;;;5017875;28;20034;-84
2021/09/10 04:44:56;;;;;;;1999.90;999.90;;;;;;;;;;5017682;28;20034;-86
2021/09/10 04:47:25;;;;;;;1999.90;999.90;;;;;;;;;;5017351;28;20033;-85
2021/09/10 04:49:51;;;;;;;1999.90;999.90;;;;;;;;;;5017893;28;20046;-86
2021/09/10 04:52:17;;;;;;;1999.90;999.90;;;;;;;;;;5017369;28;20037;-86
2021/09/10 04:54:43;;;;;;;1999.90;999.90;;;;;;;;;;5017322;28;20026;-86
2021/09/10 04:57:09;;;;;;;1999.90;999.90;;;;;;;;;;5017284;28;20026;-85
2021/09/10 04:59:35;;;;;;;1999.90;999.90;;;;;;;;;;5017542;28;20029;-87
2021/09/10 05:02:01;;;;;;;1999.90;999.90;;;;;;;;;;5017767;28;20129;-85
2021/09/10 05:04:27;;;;;;;1999.90;999.90;;;;;;;;;;5017135;28;20061;-87
2021/09/10 05:06:54;;;;;;;1999.90;999.90;;;;;;;;;;5016893;28;20034;-87
2021/09/10 05:09:20;;;;;;;1999.90;999.90;;;;;;;;;;5017524;28;20025;-86
2021/09/10 05:11:47;;;;;;;1999.90;999.90;;;;;;;;;;5017423;28;20469;-86
2021/09/10 05:14:14;;;;;;;1999.90;999.90;;;;;;;;;;5018793;28;20033;-85
2021/09/10 05:16:40;;;;;;;1999.90;999.90;;;;;;;;;;5022620;28;20021;-86
2021/09/10 05:19:07;;;;;;;1999.90;999.90;;;;;;;;;;5026405;28;20033;-87
2021/09/10 05:21:33;;;;;;;1999.90;999.90;;;;;;;;;;5026317;28;20025;-86
2021/09/10 05:23:59;;;;;;;1999.90;999.90;;;;;;;;;;5020703;28;20050;-85
2021/09/10 05:26:25;;;;;;;1999.90;999.90;;;;;;;;;;5017219;28;20038;-85
2021/09/10 05:28:52;;;;;;;1999.90;999.90;;;;;;;;;;5017096;28;20084;-86
2021/09/10 05:31:18;;;;;;;1999.90;999.90;;;;;;;;;;5016942;28;20432;-87
2021/09/10 05:33:44;;;;;;;1999.90;999.90;;;;;;;;;;5016670;28;20026;-84
2021/09/10 05:36:10;;;;;;;1999.90;999.90;;;;;;;;;;5016696;28;20026;-85
2021/09/10 05:38:36;;;;;;;1999.90;999.90;;;;;;;;;;5016977;28;20026;-86
2021/09/10 05:41:02;;;;;;;1999.90;999.90;;;;;;;;;;5017136;28;20044;-86
2021/09/10 05:43:28;;;;;;;1999.90;999.90;;;;;;;;;;5016338;28;20030;-87
2021/09/10 05:45:54;;;;;;;1999.90;999.90;;;;;;;;;;5016396;28;20037;-85
2021/09/10 05:48:20;;;;;;;1999.90;999.90;;;;;;;;;;5015761;28;20033;-90
2021/09/10 05:50:46;;;;;;;1999.90;999.90;;;;;;;;;;5016307;28;20109;-88
2021/09/10 05:53:13;;;;;;;1999.90;999.90;;;;;;;;;;5015926;28;20529;-86
2021/09/10 05:55:39;;;;;;;1999.90;999.90;;;;;;;;;;5016426;28;20382;-86
2021/09/10 05:58:05;;;;;;;1999.90;999.90;;;;;;;;;;5015835;28;20053;-87
2021/09/10 06:00:31;;;;;;;1999.90;999.90;;;;;;;;;;5015896;28;20018;-86
2021/09/10 06:02:57;;;;;;;1999.90;999.90;;;;;;;;;;5016198;28;20034;-87
2021/09/10 06:05:23;;;;;;;1999.90;999.90;;;;;;;;;;5017410;28;20048;-88
2021/09/10 06:07:49;;;;;;;1999.90;999.90;;;;;;;;;;5016418;28;20033;-87
2021/09/10 06:10:18;;;;;;;1999.90;999.90;;;;;;;;;;5015996;28;20049;-84
2021/09/10 06:12:44;;;;;;;1999.90;999.90;;;;;;;;;;5014631;28;20109;-84
2021/09/10 06:15:11;;;;;;;1999.90;999.90;;;;;;;;;;5014842;28;20057;-85
2021/09/10 06:17:37;;;;;;;1999.90;999.90;;;;;;;;;;5015856;28;20030;-83
2021/09/10 06:20:04;;;;;;;1999.90;999.90;;;;;;;;;;5016027;28;20087;-85
2021/09/10 06:22:31;;;;;;;1999.90;999.90;;;;;;;;;;5014914;28;20022;-84
2021/09/10 06:24:57;;;;;;;1999.90;999.90;;;;;;;;;;5014979;28;20136;-87
2021/09/10 06:27:23;;;;;;;1999.90;999.90;;;;;;;;;;5014889;28;20036;-86
2021/09/10 06:29:49;;;;;;;1999.90;999.90;;;;;;;;;;5015035;28;20026;-84
2021/09/10 06:32:16;;;;;;;1999.90;999.90;;;;;;;;;;5014818;28;20022;-88
2021/09/10 06:34:42;;;;;;;1999.90;999.90;;;;;;;;;;5014591;28;20076;-85
2021/09/10 06:37:08;;;;;;;1999.90;999.90;;;;;;;;;;5014693;28;20049;-87
2021/09/10 06:39:35;;;;;;;1999.90;999.90;;;;;;;;;;5014563;28;20458;-85
2021/09/10 06:42:01;;;;;;;1999.90;999.90;;;;;;;;;;5014856;28;20041;-86
2021/09/10 06:44:27;;;;;;;1999.90;999.90;;;;;;;;;;5014590;28;20022;-87
2021/09/10 06:46:53;;;;;;;1999.90;999.90;;;;;;;;;;5014529;28;20025;-86
2021/09/10 06:49:19;;;;;;;1999.90;999.90;;;;;;;;;;5014843;28;20021;-88
2021/09/10 06:51:45;;;;;;;1999.90;999.90;;;;;;;;;;5014297;28;20030;-83
2021/09/10 06:54:11;;;;;;;1999.90;999.90;;;;;;;;;;5014312;28;20026;-87
2021/09/10 06:56:37;;;;;;;1999.90;999.90;;;;;;;;;;5015233;28;20106;-86
2021/09/10 06:59:03;;;;;;;1999.90;999.90;;;;;;;;;;5014114;28;20457;-85
2021/09/10 07:01:29;;;;;;;1999.90;999.90;;;;;;;;;;5014231;28;20473;-84
2021/09/10 07:03:55;;;;;;;1999.90;999.90;;;;;;;;;;5013541;28;20474;-87
2021/09/10 07:06:22;;;;;;;1999.90;999.90;;;;;;;;;;5013235;28;20091;-85
2021/09/10 07:08:48;;;;;;;1999.90;999.90;;;;;;;;;;5013295;28;20022;-84
2021/09/10 07:11:14;;;;;;;1999.90;999.90;;;;;;;;;;5013487;28;20036;-86
2021/09/10 07:13:40;;;;;;;1999.90;999.90;;;;;;;;;;5013154;28;20445;-86
2021/09/10 07:16:06;;;;;;;1999.90;999.90;;;;;;;;;;5013983;28;20028;-92
2021/09/10 07:18:33;;;;;;;1999.90;999.90;;;;;;;;;;5014425;28;20018;-89
2021/09/10 07:21:02;;;;;;;1999.90;999.90;;;;;;;;;;5013937;28;20026;-88
2021/09/10 07:23:30;;;;;;;1999.90;999.90;;;;;;;;;;5013482;28;20037;-89
2021/09/10 07:25:59;;;;;;;1999.90;999.90;;;;;;;;;;5013445;28;20137;-88
2021/09/10 07:28:26;;;;;;;1999.90;999.90;;;;;;;;;;5013491;28;20101;-88
2021/09/10 07:30:53;;;;;;;1999.90;999.90;;;;;;;;;;5013477;28;20057;-89
2021/09/10 07:33:19;;;;;;;1999.90;999.90;;;;;;;;;;5013407;28;20433;-88
2021/09/10 07:35:45;;;;;;;1999.90;999.90;;;;;;;;;;5013764;28;20018;-87
2021/09/10 07:38:11;;;;;;;1999.90;999.90;;;;;;;;;;5013892;28;20033;-88
2021/09/10 07:40:37;;;;;;;1999.90;999.90;;;;;;;;;;5015067;28;20026;-90
2021/09/10 07:43:03;;;;;;;1999.90;999.90;;;;;;;;;;5013942;28;20021;-85
2021/09/10 07:45:29;;;;;;;1999.90;999.90;;;;;;;;;;5014451;28;20076;-89
2021/09/10 07:47:55;;;;;;;1999.90;999.90;;;;;;;;;;5014123;28;20041;-89
2021/09/10 07:50:21;;;;;;;1999.90;999.90;;;;;;;;;;5012966;28;20396;-88
2021/09/10 07:52:47;;;;;;;1999.90;999.90;;;;;;;;;;5012619;28;20026;-87
2021/09/10 07:55:13;;;;;;;1999.90;999.90;;;;;;;;;;5014072;28;20029;-89
2021/09/10 07:57:39;;;;;;;1999.90;999.90;;;;;;;;;;5013812;28;20483;-87
2021/09/10 08:00:05;;;;;;;1999.90;999.90;;;;;;;;;;5013404;28;20113;-86
2021/09/10 08:02:32;;;;;;;1999.90;999.90;;;;;;;;;;5012816;28;20022;-87
2021/09/10 08:04:59;;;;;;;1999.90;999.90;;;;;;;;;;5013926;28;20439;-87
2021/09/10 08:07:25;;;;;;;1999.90;999.90;;;;;;;;;;5013402;28;20068;-86
2021/09/10 08:09:51;;;;;;;1999.90;999.90;;;;;;;;;;5014020;28;20029;-87
2021/09/10 08:12:17;;;;;;;1999.90;999.90;;;;;;;;;;5017322;28;20030;-83
2021/09/10 08:14:43;;;;;;;1999.90;999.90;;;;;;;;;;5017411;28;20029;-89
2021/09/10 08:17:09;;;;;;;1999.90;999.90;;;;;;;;;;5017983;28;20030;-87
2021/09/10 08:19:35;;;;;;;1999.90;999.90;;;;;;;;;;5017630;28;20474;-83
2021/09/10 08:22:01;;;;;;;1999.90;999.90;;;;;;;;;;5017244;28;20026;-86
2021/09/10 08:24:27;;;;;;;1999.90;999.90;;;;;;;;;;5016896;28;20081;-88
2021/09/10 08:26:53;;;;;;;1999.90;999.90;;;;;;;;;;5017660;28;20038;-88
2021/09/10 08:29:20;;;;;;;1999.90;999.90;;;;;;;;;;5016778;28;20057;-79
2021/09/10 08:31:46;;;;;;;1999.90;999.90;;;;;;;;;;5017662;28;20033;-82
2021/09/10 08:34:12;;;;;;;1999.90;999.90;;;;;;;;;;5016695;28;20071;-83
2021/09/10 08:36:38;;;;;;;1999.90;999.90;;;;;;;;;;5016850;28;20033;-86
2021/09/10 08:39:04;;;;;;;1999.90;999.90;;;;;;;;;;5016471;28;20061;-85
2021/09/10 08:41:32;;;;;;;1999.90;999.90;;;;;;;;;;5017079;28;20543;-90
2021/09/10 08:44:02;;;;;;;1999.90;999.90;;;;;;;;;;5017093;28;20022;-89
2021/09/10 08:46:28;;;;;;;1999.90;999.90;;;;;;;;;;5017416;28;20478;-87
2021/09/10 08:48:54;;;;;;;1999.90;999.90;;;;;;;;;;5018376;28;20100;-88
2021/09/10 08:51:20;;;;;;;1999.90;999.90;;;;;;;;;;5017710;28;20038;-87
2021/09/10 08:53:46;;;;;;;1999.90;999.90;;;;;;;;;;5017625;28;20053;-88
2021/09/10 08:56:13;;;;;;;1999.90;999.90;;;;;;;;;;5017742;28;20014;-87
2021/09/10 08:58:39;;;;;;;1999.90;999.90;;;;;;;;;;5017466;28;20037;-88
2021/09/10 09:01:05;;;;;;;1999.90;999.90;;;;;;;;;;5016784;28;20076;-87
2021/09/10 09:03:32;;;;;;;1999.90;999.90;;;;;;;;;;5016866;28;20065;-87
2021/09/10 09:05:59;;;;;;;1999.90;999.90;;;;;;;;;;5016769;28;20029;-87
2021/09/10 09:08:25;;;;;;;1999.90;999.90;;;;;;;;;;5016525;28;20061;-87
2021/09/10 09:11:09;;;;;;;1999.90;999.90;;;;;;;;;;5016556;28;20022;-85
2021/09/10 09:13:37;;;;;;;1999.90;999.90;;;;;;;;;;5016906;28;20120;-87
2021/09/10 09:16:16;;;;;;;1999.90;999.90;;;;;;;;;;5017686;28;20458;-86
2021/09/10 09:18:45;;;;;;;1999.90;999.90;;;;;;;;;;5021118;28;20033;-87
2021/09/10 09:21:12;;;;;;;1999.90;999.90;;;;;;;;;;5022168;28;20042;-85
2021/09/10 09:23:38;;;;;;;1999.90;999.90;;;;;;;;;;5026809;28;20050;-83
2021/09/10 09:26:14;;;;;;;1999.90;999.90;;;;;;;;;;5028842;28;20033;-82
2021/09/10 09:28:40;;;;;;;1999.90;999.90;;;;;;;;;;5025000;28;20441;-85
2021/09/10 09:31:10;;;;;;;1999.90;999.90;;;;;;;;;;5018582;28;20470;-87
2021/09/10 09:33:38;;;;;;;1999.90;999.90;;;;;;;;;;5020258;28;20018;-87
2021/09/10 09:36:06;;;;;;;1999.90;999.90;;;;;;;;;;5021985;28;20034;-83
2021/09/10 09:38:37;;;;;;;1999.90;999.90;;;;;;;;;;5019859;28;20100;-85
2021/09/10 09:41:06;;;;;;;1999.90;999.90;;;;;;;;;;5022344;28;20034;-85
2021/09/10 09:43:41;;;;;;;1999.90;999.90;;;;;;;;;;5022547;28;20029;-84
2021/09/10 09:46:23;;;;;;;1999.90;999.90;;;;;;;;;;5022302;28;20026;-83
2021/09/10 09:48:50;;;;;;;1999.90;999.90;;;;;;;;;;5022724;28;20044;-85
2021/09/10 09:51:18;;;;;;;1999.90;999.90;;;;;;;;;;5022852;28;20109;-84
2021/09/10 09:53:45;;;;;;;1999.90;999.90;;;;;;;;;;5022065;28;20465;-79
2021/09/10 09:56:11;;;;;;;1999.90;999.90;;;;;;;;;;5023035;28;20018;-84
2021/09/10 09:58:38;;;;;;;1999.90;999.90;;;;;;;;;;5025400;28;20493;-85
2021/09/10 10:01:05;;;;;;;1999.90;999.90;;;;;;;;;;5025262;28;20049;-81
2021/09/10 10:03:31;;;;;;;1999.90;999.90;;;;;;;;;;5023680;28;20069;-84
2021/09/10 10:06:04;;;;;;;1999.90;999.90;;;;;;;;;;5006876;28;20041;-86
2021/09/10 10:08:39;;;;;;;1999.90;999.90;;;;;;;;;;5021383;28;20057;-81
2021/09/10 10:11:10;;;;;;;1999.90;999.90;;;;;;;;;;5021341;28;20030;-83
2021/09/10 10:13:36;;;;;;;1999.90;999.90;;;;;;;;;;5020767;28;20030;-82
2021/09/10 10:16:03;;;;;;;1999.90;999.90;;;;;;;;;;5020516;28;20025;-84
2021/09/10 10:18:35;;;;;;;1999.90;999.90;;;;;;;;;;5020322;28;20033;-85
2021/09/10 10:21:01;;;;;;;1999.90;999.90;;;;;;;;;;5020871;28;20386;-81
2021/09/10 10:23:45;;;;;;;1999.90;999.90;;;;;;;;;;5022718;28;20053;-82
2021/09/10 10:26:11;;;;;;;1999.90;999.90;;;;;;;;;;5021416;28;20056;-85
2021/09/10 10:28:44;;;;;;;1999.90;999.90;;;;;;;;;;5023732;28;20466;-85
2021/09/10 10:31:10;;;;;;;1999.90;999.90;;;;;;;;;;5024974;28;20049;-84
2021/09/10 10:33:46;;;;;;;1999.90;999.90;;;;;;;;;;5022448;28;20037;-84
2021/09/10 10:36:34;;;;;;;1999.90;999.90;;;;;;;;;;5021616;28;20028;-81
2021/09/10 10:39:12;;;;;;;1999.90;999.90;;;;;;;;;;5022101;28;20125;-85
2021/09/10 10:41:48;;;;;;;1999.90;999.90;;;;;;;;;;5024399;28;20052;-83
2021/09/10 10:44:33;;;;;;;1999.90;999.90;;;;;;;;;;5024512;28;20062;-83
2021/09/10 10:47:06;;;;;;;1999.90;999.90;;;;;;;;;;5021280;28;20033;-81
2021/09/10 10:49:36;;;;;;;1999.90;999.90;;;;;;;;;;5024169;28;20068;-82
2021/09/10 10:52:22;;;;;;;1999.90;999.90;;;;;;;;;;5023770;28;20022;-86
2021/09/10 10:55:08;;;;;;;1999.90;999.90;;;;;;;;;;5023365;28;20025;-85
2021/09/10 10:57:35;;;;;;;1999.90;999.90;;;;;;;;;;5025499;28;20029;-86
2021/09/10 11:00:21;;;;;;;1999.90;999.90;;;;;;;;;;5023421;28;20095;-82
2021/09/10 11:02:47;;;;;;;1999.90;999.90;;;;;;;;;;5021727;28;20029;-85
2021/09/10 11:05:19;;;;;;;1999.90;999.90;;;;;;;;;;5024116;28;20061;-82
2021/09/10 11:07:45;;;;;;;1999.90;999.90;;;;;;;;;;5024364;28;20054;-86
2021/09/10 11:10:15;;;;;;;1999.90;999.90;;;;;;;;;;5024571;28;20026;-84
2021/09/10 11:12:42;;;;;;;1999.90;999.90;;;;;;;;;;5023945;28;20484;-85
2021/09/10 11:15:21;;;;;;;1999.90;999.90;;;;;;;;;;5023666;28;20034;-83
2021/09/10 11:17:53;;;;;;;1999.90;999.90;;;;;;;;;;5024723;28;20029;-84
2021/09/10 11:20:53;;;;;;;1999.90;999.90;;;;;;;;;;5026687;28;20048;-83
2021/09/10 11:23:32;;;;;;;1999.90;999.90;;;;;;;;;;5025436;28;20049;-84
2021/09/10 11:25:59;;;;;;;1999.90;999.90;;;;;;;;;;5022894;28;20045;-82
2021/09/10 11:28:27;;;;;;;1999.90;999.90;;;;;;;;;;5022896;28;20031;-83
2021/09/10 11:30:54;;;;;;;1999.90;999.90;;;;;;;;;;5024397;28;20030;-85
2021/09/10 11:33:20;;;;;;;1999.90;999.90;;;;;;;;;;5023776;28;20069;-83
2021/09/10 11:35:48;;;;;;;1999.90;999.90;;;;;;;;;;5008080;28;20022;-85
2021/09/10 11:38:16;;;;;;;1999.90;999.90;;;;;;;;;;5023212;28;20025;-86
2021/09/10 11:40:44;;;;;;;1999.90;999.90;;;;;;;;;;5021623;28;20022;-86
2021/09/10 11:43:14;;;;;;;1999.90;999.90;;;;;;;;;;5022905;28;20049;-85
2021/09/10 11:45:43;;;;;;;1999.90;999.90;;;;;;;;;;5021931;28;20018;-84
2021/09/10 11:48:10;;;;;;;1999.90;999.90;;;;;;;;;;5021509;28;20105;-85
2021/09/10 11:50:45;;;;;;;1999.90;999.90;;;;;;;;;;5020494;28;20018;-84
2021/09/10 11:53:20;;;;;;;1999.90;999.90;;;;;;;;;;5022226;28;20541;-82
2021/09/10 11:55:54;;;;;;;1999.90;999.90;;;;;;;;;;5022157;28;20030;-82
2021/09/10 11:58:29;;;;;;;1999.90;999.90;;;;;;;;;;5023723;28;20037;-83
2021/09/10 12:01:11;;;;;;;1999.90;999.90;;;;;;;;;;5023360;28;20030;-84
2021/09/10 12:03:45;;;;;;;1999.90;999.90;;;;;;;;;;5023114;28;20034;-85
2021/09/10 12:06:16;;;;;;;1999.90;999.90;;;;;;;;;;5004740;28;20042;-83
2021/09/10 12:09:02;;;;;;;1999.90;999.90;;;;;;;;;;5019811;28;20034;-81
2021/09/10 12:11:28;;;;;;;1999.90;999.90;;;;;;;;;;5019234;28;20026;-85
2021/09/10 12:13:54;;;;;;;1999.90;999.90;;;;;;;;;;5018043;28;20026;-80
2021/09/10 12:16:20;;;;;;;1999.90;999.90;;;;;;;;;;5019561;28;20018;-80
2021/09/10 12:19:06;;;;;;;1999.90;999.90;;;;;;;;;;5020626;28;20056;-84
2021/09/10 12:21:34;;;;;;;1999.90;999.90;;;;;;;;;;5019332;28;20033;-81
2021/09/10 12:24:13;;;;;;;1999.90;999.90;;;;;;;;;;5020344;28;20068;-81
2021/09/10 12:26:48;;;;;;;1999.90;999.90;;;;;;;;;;5020667;28;20060;-82
2021/09/10 12:29:14;;;;;;;;;;;;;;;;;;5020147;28;20025;-83
2021/09/10 12:31:40;;;;;;;1999.90;999.90;;;;;;;;;;5020234;28;19912;-81
2021/09/10 12:34:06;;;;;;;1999.90;999.90;;;;;;;;;;5018762;28;20084;-82
2021/09/10 12:36:32;;;;;;;1999.90;999.90;;;;;;;;;;5018827;28;20033;-79
2021/09/10 12:38:58;;;;;;;1999.90;999.90;;;;;;;;;;5017740;28;20358;-82
2021/09/10 12:41:24;;;;;;;1999.90;999.90;;;;;;;;;;5019124;28;20090;-81
2021/09/10 12:43:52;;;;;;;1999.90;999.90;;;;;;;;;;5017217;28;20025;-83
2021/09/10 12:46:18;;;;;;;1999.90;999.90;;;;;;;;;;5017972;28;21109;-84
2021/09/10 12:48:44;;;;;;;1999.90;999.90;;;;;;;;;;5020470;28;20485;-81
2021/09/10 12:51:10;;;;;;;1999.90;999.90;;;;;;;;;;5018822;28;20022;-85
2021/09/10 12:53:38;;;;;;;1999.90;999.90;;;;;;;;;;5019412;28;20050;-85
2021/09/10 12:56:04;;;;;;;1999.90;999.90;;;;;;;;;;5022712;28;20022;-81
2021/09/10 12:58:30;;;;;;;1999.90;999.90;;;;;;;;;;5026143;28;20093;-80
2021/09/10 13:00:57;;;;;;;1999.90;999.90;;;;;;;;;;5023686;28;20034;-85
2021/09/10 13:03:23;;;;;;;1999.90;999.90;;;;;;;;;;5022545;28;20128;-81
2021/09/10 13:05:49;;;;;;;1999.90;999.90;;;;;;;;;;5024591;28;20053;-84
2021/09/10 13:08:15;;;;;;;1999.90;999.90;;;;;;;;;;5023482;28;20033;-83
2021/09/10 13:10:41;;;;;;;1999.90;999.90;;;;;;;;;;5023379;28;20037;-82
2021/09/10 13:13:07;;;;;;;1999.90;999.90;;;;;;;;;;5033241;28;20097;-80
2021/09/10 13:15:33;;;;;;;1999.90;999.90;;;;;;;;;;5032284;28;20022;-87
2021/09/10 13:17:59;;;;;;;1999.90;999.90;;;;;;;;;;5027699;28;20037;-81
2021/09/10 13:20:25;;;;;;;1999.90;999.90;;;;;;;;;;5024688;28;20030;-87
2021/09/10 13:22:51;;;;;;;1999.90;999.90;;;;;;;;;;5023902;28;20033;-85
2021/09/10 13:25:17;;;;;;;1999.90;999.90;;;;;;;;;;5024895;28;20109;-84
2021/09/10 13:27:44;;;;;;;1999.90;999.90;;;;;;;;;;5026209;28;20092;-81
2021/09/10 13:30:12;;;;;;;1999.90;999.90;;;;;;;;;;5023668;28;20038;-86
2021/09/10 13:32:38;;;;;;;1999.90;999.90;;;;;;;;;;5020831;28;20481;-85
2021/09/10 13:35:05;;;;;;;1999.90;999.90;;;;;;;;;;5023666;28;20567;-88
2021/09/10 13:37:31;;;;;;;1999.90;999.90;;;;;;;;;;5021251;28;20489;-84
2021/09/10 13:39:57;;;;;;;1999.90;999.90;;;;;;;;;;5021851;28;20510;-84
2021/09/10 13:42:25;;;;;;;1999.90;999.90;;;;;;;;;;5023469;28;20034;-85
2021/09/10 13:44:51;;;;;;;1999.90;999.90;;;;;;;;;;5023004;28;20018;-84